Time;durP1;ratioP1;P1;durP2;ratioP2;P2;SDS_P1;SDS_P2;PMS_P1;PMS_P2;Temp;Humidity;BMP_temperature;BMP_pressure;BME280_temperature;BME280_humidity;BME280_pressure;Samples;Min_cycle;Max_cycle;Signal;HPM_P1;HPM_P2
2021/10/26 00:02:22;;;;;;;27.50;14.65;;;;;;;;;;5010625;28;20119;-64
2021/10/26 00:04:48;;;;;;;27.58;12.50;;;;;;;;;;5009042;28;20792;-64
2021/10/26 00:07:15;;;;;;;50.25;16.23;;;;;;;;;;5007295;28;20034;-69
2021/10/26 00:09:41;;;;;;;22.90;11.27;;;7.70;99.90;;;;;;5004590;28;20169;-70
2021/10/26 00:12:08;;;;;;;21.30;12.45;;;;;;;;;;5004540;28;20095;-71
2021/10/26 00:14:38;;;;;;;24.33;12.30;;;;;;;;;;5003391;28;20122;-71
2021/10/26 00:17:04;;;;;;;22.80;11.23;;;;;;;;;;5002691;28;20030;-71
2021/10/26 00:19:30;;;;;;;19.25;10.70;;;;;;;;;;5006426;28;20025;-70
2021/10/26 00:21:56;;;;;;;23.63;10.82;;;;;;;;;;5007548;28;20044;-70
2021/10/26 00:24:22;;;;;;;20.88;10.15;;;;;;;;;;5014247;28;20034;-70
2021/10/26 00:26:49;;;;;;;21.25;11.05;;;;;;;;;;5013253;28;20525;-71
2021/10/26 00:29:20;;;;;;;21.50;11.10;;;;;;;;;;5009292;28;20141;-70
2021/10/26 00:31:46;;;;;;;19.85;10.95;;;;;;;;;;5008953;28;20112;-70
2021/10/26 00:34:12;;;;;;;29.00;12.48;;;;;;;;;;5007752;28;20037;-70
2021/10/26 00:36:38;;;;;;;22.15;11.13;;;;;;;;;;5006565;28;20029;-70
2021/10/26 00:39:04;;;;;;;24.30;11.43;;;;;;;;;;5004956;28;20033;-71
2021/10/26 00:41:30;;;;;;;22.40;10.98;;;;;;;;;;5002121;28;20033;-71
2021/10/26 00:43:56;;;;;;;20.25;10.85;;;;;;;;;;5001563;28;20037;-71
2021/10/26 00:46:22;;;;;;;22.02;11.38;;;;;;;;;;5003208;28;20682;-71
2021/10/26 00:48:48;;;;;;;23.02;11.48;;;;;;;;;;5004298;28;20040;-70
2021/10/26 00:51:14;;;;;;;19.95;10.95;;;;;;;;;;5006607;28;20457;-70
2021/10/26 00:53:40;;;;;;;19.05;11.05;;;;;;;;;;5008060;28;20030;-70
2021/10/26 00:56:07;;;;;;;19.92;10.77;;;;;;;;;;5009012;28;20026;-70
2021/10/26 00:58:34;;;;;;;20.08;10.70;;;;;;;;;;5010617;28;20114;-70
2021/10/26 01:01:00;;;;;;;23.95;11.00;;;;;;;;;;5007989;28;20095;-70
2021/10/26 01:03:28;;;;;;;21.77;11.32;;;;;;;;;;5004691;28;20737;-71
2021/10/26 01:05:55;;;;;;;21.48;9.95;;;;;;;;;;5004050;28;20135;-71
2021/10/26 01:08:22;;;;;;;21.65;10.52;;;;;;;;;;5002889;28;20084;-70
2021/10/26 01:10:51;;;;;;;21.90;10.20;;;;;;;;;;5000074;28;20406;-70
2021/10/26 01:13:17;;;;;;;19.65;9.77;;;;;;;;;;5003421;28;20026;-70
2021/10/26 01:15:43;;;;;;;21.60;10.15;;;;;;;;;;4986817;28;20780;-70
2021/10/26 01:18:24;;;;;;;16.20;9.65;;;;;;;;;;5004291;28;20405;-70
2021/10/26 01:20:50;;;;;;;18.40;9.50;;;;;;;;;;5006233;28;20057;-70
2021/10/26 01:23:16;;;;;;;18.80;9.68;;;;;;;;;;5006620;28;20060;-69
2021/10/26 01:25:43;;;;;;;21.33;9.90;;;;;;;;;;5008650;28;20057;-69
2021/10/26 01:28:09;;;;;;;17.83;9.30;;;;;;;;;;5008552;28;20326;-69
2021/10/26 01:30:35;;;;;;;23.50;11.25;;;;;;;;;;5005529;28;20588;-70
2021/10/26 01:33:25;;;;;;;19.42;10.65;;;;;;;;;;5008558;28;20044;-71
2021/10/26 01:36:04;;;;;;;22.80;10.23;;;;;;;;;;5014671;28;20021;-71
2021/10/26 01:38:30;;;;;;;18.70;9.73;;;;;;;;;;5014455;28;20478;-70
2021/10/26 01:40:56;;;;;;;17.88;9.93;;;;;;;;;;5015986;28;20075;-70
2021/10/26 01:43:22;;;;;;;17.48;9.65;;;;;;;;;;5015743;28;20128;-70
2021/10/26 01:45:49;;;;;;;21.55;9.63;;;;;;;;;;5014638;28;20037;-70
2021/10/26 01:48:27;;;;;;;21.75;10.10;;;;;;;;;;5009957;28;20037;-70
2021/10/26 01:50:54;;;;;;;15.07;9.20;;;;;;;;;;5011793;28;20037;-70
2021/10/26 01:53:23;;;;;;;21.05;10.18;;;;;;;;;;5004939;28;20025;-70
2021/10/26 01:55:50;;;;;;;20.40;9.57;;;;;;;;;;5007775;28;20021;-70
2021/10/26 01:58:16;;;;;;;19.50;9.85;;;;;;;;;;5012439;28;20095;-70
2021/10/26 02:01:12;;;;;;;15.80;9.63;;;;;;;;;;5010148;28;20106;-70
2021/10/26 02:03:39;;;;;;;20.00;9.30;;;;;;;;;;5005528;28;20045;-70
2021/10/26 02:06:06;;;;;;;17.20;8.82;;;;;;;;;;5004299;28;20406;-70
2021/10/26 02:08:32;;;;;;;22.88;10.00;;;;;;;;;;5002809;28;20034;-70
2021/10/26 02:10:59;;;;;;;19.00;9.38;;;;;;;;;;5001674;28;20038;-70
2021/10/26 02:13:25;;;;;;;19.48;9.45;;;;;;;;;;5004767;28;20899;-70
2021/10/26 02:15:54;;;;;;;17.73;9.27;;;;;;;;;;5004476;28;20056;-70
2021/10/26 02:18:20;;;;;;;15.38;9.27;;;;;;;;;;5006532;28;20030;-70
2021/10/26 02:20:47;;;;;;;21.38;9.95;;;;;;;;;;5007717;28;20065;-71
2021/10/26 02:23:15;;;;;;;20.83;10.20;;;;;;;;;;5009453;28;20139;-71
2021/10/26 02:25:41;;;;;;;19.02;10.05;;;;;;;;;;5010698;28;20112;-71
2021/10/26 02:28:07;;;;;;;16.95;8.90;;;;;;;;;;5012420;28;20087;-71
2021/10/26 02:30:34;;;;;;;16.08;8.52;;;;;;;;;;5010760;28;20029;-71
2021/10/26 02:33:00;;;;;;;17.73;8.43;;;;;;;;;;5015919;28;20037;-71
2021/10/26 02:35:26;;;;;;;17.00;9.45;;;;;;;;;;5016723;28;20180;-71
2021/10/26 02:37:52;;;;;;;18.40;8.77;;;;;;;;;;5018363;28;20032;-71
2021/10/26 02:40:19;;;;;;;19.52;9.20;;;;;;;;;;5019471;28;20057;-71
2021/10/26 02:42:45;;;;;;;15.90;8.27;;;;;;;;;;5017588;28;20692;-71
2021/10/26 02:45:13;;;;;;;13.77;8.27;;;;;;;;;;5014868;28;20057;-71
2021/10/26 02:47:39;;;;;;;15.15;9.38;;;;;;;;;;5005442;28;20443;-70
2021/10/26 02:50:05;;;;;;;20.73;9.13;;;;;;;;;;5006461;28;20021;-70
2021/10/26 02:52:31;;;;;;;15.88;8.88;;;;;;;;;;5017023;28;20868;-71
2021/10/26 02:54:57;;;;;;;16.83;9.52;;;;;;;;;;5010645;28;20030;-70
2021/10/26 02:57:23;;;;;;;15.98;8.48;;;;;;;;;;5010880;28;20037;-70
2021/10/26 02:59:49;;;;;;;14.02;8.43;;;;;;;;;;5007007;28;20044;-70
2021/10/26 03:02:16;;;;;;;17.08;8.77;;;;;;;;;;5006477;28;20040;-70
2021/10/26 03:04:43;;;;;;;15.38;8.90;;;;;;;;;;5005838;28;20486;-70
2021/10/26 03:07:09;;;;;;;18.20;8.63;;;;;;;;;;5019003;28;20025;-70
2021/10/26 03:09:35;;;;;;;17.58;9.07;;;;;;;;;;5002598;28;20600;-71
2021/10/26 03:12:02;;;;;;;17.33;7.50;;;;;;;;;;5004385;28;20026;-71
2021/10/26 03:14:28;;;;;;;11.13;7.32;;;;;;;;;;5003883;28;20058;-72
2021/10/26 03:16:54;;;;;;;16.52;8.02;;;;;;;;;;5006034;28;20029;-71
2021/10/26 03:19:21;;;;;;;16.98;8.30;;;;;;;;;;5012144;28;20025;-71
2021/10/26 03:21:47;;;;;;;14.57;7.45;;;;;;;;;;5010771;28;20034;-71
2021/10/26 03:24:13;;;;;;;14.73;7.68;;;;;;;;;;5009274;28;20309;-71
2021/10/26 03:26:39;;;;;;;14.02;7.63;;;;;;;;;;5008687;28;20461;-70
2021/10/26 03:29:07;;;;;;;12.35;7.15;;;;;;;;;;5005687;28;20552;-70
2021/10/26 03:31:35;;;;;;;15.77;7.72;;;;;;;;;;5003088;28;20563;-71
2021/10/26 03:34:19;;;;;;;18.07;6.93;;;;;;;;;;5004106;28;20107;-69
2021/10/26 03:36:46;;;;;;;13.40;6.90;;;;;;;;;;5002690;28;20040;-70
2021/10/26 03:39:11;;;;;;;13.30;7.70;;;;;;;;;;5001301;28;20918;-70
2021/10/26 03:41:38;;;;;;;17.17;8.65;;;;;;;;;;5003804;28;20084;-70
2021/10/26 03:44:04;;;;;;;12.93;7.80;;;;;;;;;;4988424;28;20643;-70
2021/10/26 03:46:31;;;;;;;14.93;8.15;;;;;;;;;;5005146;28;20116;-70
2021/10/26 03:48:57;;;;;;;10.15;6.43;;;;;;;;;;5007456;28;20045;-70
2021/10/26 03:51:24;;;;;;;19.42;8.45;;;;;;;;;;5008605;28;20033;-70
2021/10/26 03:53:50;;;;;;;10.57;6.50;;;;;;;;;;5010205;28;20041;-70
2021/10/26 03:56:18;;;;;;;10.77;6.85;;;;;;;;;;5015227;28;20053;-70
2021/10/26 03:58:44;;;;;;;14.50;7.78;;;;;;;;;;5004897;28;20033;-70
2021/10/26 04:01:19;;;;;;;14.07;6.88;;;;;;;;;;5003293;28;20858;-70
2021/10/26 04:03:45;;;;;;;12.88;7.32;;;;;;;;;;5001885;28;20845;-70
2021/10/26 04:06:17;;;;;;;15.48;8.10;;;;;;;;;;5008349;28;20042;-70
2021/10/26 04:11:17;;;;;;;13.82;7.63;;;;;;;;;;5017200;28;20083;-71
2021/10/26 04:13:43;;;;;;;14.05;7.80;;;;;;;;;;5003610;28;20034;-70
2021/10/26 04:16:10;;;;;;;19.80;8.95;;;;;;;;;;5005916;28;20452;-70
2021/10/26 04:18:37;;;;;;;12.10;7.75;;;;;;;;;;5005905;28;20048;-70
2021/10/26 04:21:03;;;;;;;17.25;8.98;;;;;;;;;;5009366;28;20041;-70
2021/10/26 04:23:36;;;;;;;11.60;7.57;;;;;;;;;;5010048;28;20026;-70
2021/10/26 04:26:03;;;;;;;15.23;8.48;;;;;;;;;;5007118;28;20140;-70
2021/10/26 04:28:29;;;;;;;14.60;7.53;;;;;;;;;;5005107;28;20624;-70
2021/10/26 04:30:58;;;;;;;13.43;7.85;;;;;;;;;;5004503;28;20124;-70
2021/10/26 04:33:24;;;;;;;11.93;7.22;;;;;;;;;;5000331;28;20034;-71
2021/10/26 04:35:49;;;;;;;16.65;7.93;;;9.20;99.90;;;;;;5001681;28;20041;-71
2021/10/26 04:38:15;;;;;;;12.95;7.93;;;9.00;99.90;;;;;;4999166;28;20037;-71
2021/10/26 04:40:43;;;;;;;12.45;7.90;;;;;;;;;;5001030;28;20045;-71
2021/10/26 04:43:17;;;;;;;15.35;7.97;;;9.30;99.90;;;;;;5013905;28;20397;-70
2021/10/26 04:45:43;;;;;;;11.40;7.05;;;8.90;99.90;;;;;;5011840;28;20044;-70
2021/10/26 04:48:09;;;;;;;13.20;8.43;;;8.90;99.90;;;;;;5012009;28;20037;-70
2021/10/26 04:50:34;;;;;;;14.80;8.23;;;8.90;99.90;;;;;;5009239;28;20030;-70
2021/10/26 04:53:00;;;;;;;16.80;7.65;;;8.70;99.90;;;;;;5007856;28;20026;-71
2021/10/26 04:55:26;;;;;;;14.43;8.18;;;8.80;99.90;;;;;;5010438;28;20109;-71
2021/10/26 04:57:52;;;;;;;12.18;6.78;;;8.80;99.90;;;;;;5012185;28;20037;-71
2021/10/26 05:00:21;;;;;;;13.80;7.90;;;8.80;99.90;;;;;;5011908;28;20018;-71
2021/10/26 05:02:48;;;;;;;10.98;6.85;;;8.90;99.90;;;;;;5002481;28;20030;-70
2021/10/26 05:05:13;;;;;;;12.80;7.63;;;8.80;99.90;;;;;;4998371;28;20022;-71
2021/10/26 05:07:39;;;;;;;12.48;7.82;;;8.80;99.90;;;;;;5013788;28;20383;-71
2021/10/26 05:10:05;;;;;;;12.07;6.78;;;8.80;99.90;;;;;;5016615;28;20047;-71
2021/10/26 05:12:31;;;;;;;12.30;7.53;;;8.70;99.90;;;;;;5013728;28;20501;-70
2021/10/26 05:14:57;;;;;;;12.27;6.60;;;8.80;99.90;;;;;;5006895;28;20034;-70
2021/10/26 05:17:42;;;;;;;12.60;7.22;;;8.70;99.90;;;;;;5015822;28;20143;-71
2021/10/26 05:20:47;;;;;;;15.32;8.02;;;8.90;99.90;;;;;;4986780;28;20727;-70
2021/10/26 05:23:47;;;;;;;17.02;7.57;;;9.00;99.90;;;;;;4969349;28;20034;-71
2021/10/26 05:26:22;;;;;;;13.27;7.72;;;;;;;;;;5006159;28;20042;-71
2021/10/26 05:28:48;;;;;;;13.73;7.47;;;9.20;99.90;;;;;;5006691;28;20033;-71
2021/10/26 05:31:15;;;;;;;11.73;7.80;;;9.10;99.90;;;;;;5007889;28;20037;-71
2021/10/26 05:33:42;;;;;;;12.25;7.07;;;9.10;99.90;;;;;;5001769;28;20053;-70
2021/10/26 05:36:08;;;;;;;17.15;8.55;;;9.10;99.90;;;;;;4997625;28;20026;-70
2021/10/26 05:38:33;;;;;;;19.48;8.57;;;9.10;99.90;;;;;;5007690;28;20033;-70
2021/10/26 05:40:59;;;;;;;16.88;7.88;;;9.10;99.90;;;;;;5008339;28;20083;-70
2021/10/26 05:43:25;;;;;;;15.73;7.72;;;9.10;99.90;;;;;;5003900;28;20065;-71
2021/10/26 05:45:52;;;;;;;13.13;8.23;;;9.10;99.90;;;;;;5007997;28;20615;-69
2021/10/26 05:48:17;;;;;;;15.13;8.73;;;9.20;99.90;;;;;;5007966;28;20037;-69
2021/10/26 05:50:43;;;;;;;12.93;7.60;;;9.20;99.90;;;;;;5007791;28;20045;-68
2021/10/26 05:53:08;;;;;;;14.55;8.10;;;9.30;99.90;;;;;;5005727;28;20041;-66
2021/10/26 05:55:34;;;;;;;13.80;8.07;;;9.30;99.90;;;;;;5005809;28;20472;-66
2021/10/26 05:57:59;;;;;;;12.43;7.70;;;9.40;99.90;;;;;;5006584;28;20040;-66
2021/10/26 06:00:26;;;;;;;15.43;8.00;;;9.30;99.90;;;;;;5000285;28;20033;-67
2021/10/26 06:02:51;;;;;;;12.10;7.68;;;9.30;99.90;;;;;;4999952;28;20072;-68
2021/10/26 06:05:17;;;;;;;14.02;7.47;;;9.40;99.90;;;;;;5005374;28;20113;-66
2021/10/26 06:07:43;;;;;;;11.65;7.60;;;9.30;99.90;;;;;;5002127;28;20026;-66
2021/10/26 06:10:09;;;;;;;12.30;8.07;;;9.30;99.90;;;;;;5000461;28;20038;-66
2021/10/26 06:12:43;;;;;;;19.00;8.25;;;9.40;99.90;;;;;;5001276;28;20084;-67
2021/10/26 06:15:08;;;;;;;17.48;10.02;;;9.40;99.90;;;;;;5011234;28;20727;-66
2021/10/26 06:17:34;;;;;;;20.63;9.20;;;9.50;99.90;;;;;;5003054;28;20026;-67
2021/10/26 06:20:00;;;;;;;13.45;8.68;;;9.50;99.90;;;;;;5009539;28;20050;-67
2021/10/26 06:22:26;;;;;;;15.82;8.68;;;9.80;99.90;;;;;;5007908;28;20034;-66
2021/10/26 06:24:51;;;;;;;13.70;8.20;;;9.70;99.90;;;;;;4999097;28;20032;-67
2021/10/26 06:27:17;;;;;;;15.90;8.27;;;9.80;99.90;;;;;;5003512;28;20096;-67
2021/10/26 06:29:45;;;;;;;16.23;8.30;;;9.80;99.90;;;;;;5011662;28;20716;-67
2021/10/26 06:32:16;;;;;;;15.07;9.23;;;9.80;99.90;;;;;;5008395;28;20625;-67
2021/10/26 06:34:42;;;;;;;20.33;9.98;;;9.80;99.90;;;;;;5004324;28;20022;-67
2021/10/26 06:37:08;;;;;;;18.50;10.15;;;9.90;99.90;;;;;;5002687;28;20034;-67
2021/10/26 06:39:34;;;;;;;25.27;12.70;;;9.90;99.90;;;;;;5002447;28;20397;-66
2021/10/26 06:41:59;;;;;;;17.90;10.65;;;9.90;99.90;;;;;;5010136;28;20045;-67
2021/10/26 06:44:44;;;;;;;14.85;9.32;;;10.00;99.90;;;;;;5016905;28;20063;-66
2021/10/26 06:47:28;;;;;;;14.90;8.88;;;10.00;99.90;;;;;;5013217;28;20076;-67
2021/10/26 06:50:12;;;;;;;18.08;10.05;;;10.10;99.90;;;;;;5015208;28;20095;-67
2021/10/26 06:53:10;;;;;;;22.45;10.38;;;10.20;99.90;;;;;;4993676;28;20420;-67
2021/10/26 06:56:14;;;;;;;21.67;10.32;;;10.10;99.90;;;;;;5004939;28;20041;-67
2021/10/26 06:58:58;;;;;;;18.63;9.48;;;10.20;99.90;;;;;;5014018;28;20060;-67
2021/10/26 07:01:50;;;;;;;19.33;9.75;;;10.20;99.90;;;;;;5021275;28;20033;-67
2021/10/26 07:04:29;;;;;;;18.05;9.65;;;10.30;99.90;;;;;;5018445;28;20033;-67
2021/10/26 07:07:17;;;;;;;27.90;11.20;;;10.30;99.90;;;;;;5016341;28;20040;-67
2021/10/26 07:09:48;;;;;;;29.23;13.68;;;10.40;99.90;;;;;;5013334;28;20036;-69
2021/10/26 07:12:29;;;;;;;23.77;10.73;;;10.40;99.90;;;;;;5007659;28;20079;-69
2021/10/26 07:14:54;;;;;;;21.55;10.95;;;10.50;99.90;;;;;;5013642;28;20026;-69
2021/10/26 07:17:21;;;;;;;20.65;10.43;;;10.50;99.90;;;;;;5007398;28;20069;-69
2021/10/26 07:19:47;;;;;;;18.83;10.07;;;10.50;99.90;;;;;;5007353;28;20026;-70
2021/10/26 07:22:25;;;;;;;14.18;8.15;;;10.60;99.90;;;;;;5016604;28;20049;-70
2021/10/26 07:25:09;;;;;;;16.63;9.20;;;12.10;99.90;;;;;;5003621;28;20052;-69
2021/10/26 07:27:35;;;;;;;17.92;9.60;;;10.70;99.90;;;;;;5013535;28;20485;-68
2021/10/26 07:30:01;;;;;;;19.88;10.68;;;10.70;99.90;;;;;;5017757;28;20029;-69
2021/10/26 07:32:27;;;;;;;21.85;11.02;;;10.80;99.90;;;;;;5016428;28;20036;-69
2021/10/26 07:34:52;;;;;;;18.33;10.05;;;10.90;99.90;;;;;;5012488;28;20021;-69
2021/10/26 07:37:25;;;;;;;17.67;9.35;;;11.00;99.90;;;;;;5004079;28;20413;-69
2021/10/26 07:40:01;;;;;;;17.10;10.50;;;11.00;99.90;;;;;;5005980;28;20088;-68
2021/10/26 07:42:27;;;;;;;16.08;10.05;;;11.10;99.90;;;;;;5014119;28;20418;-69
2021/10/26 07:45:29;;;;;;;18.20;10.40;;;11.20;99.90;;;;;;5012703;28;20139;-68
2021/10/26 07:47:54;;;;;;;19.13;11.25;;;11.20;99.90;;;;;;5002666;28;20046;-69
2021/10/26 07:50:20;;;;;;;18.98;10.75;;;11.30;99.90;;;;;;5010533;28;20509;-69
2021/10/26 07:52:46;;;;;;;19.17;10.27;;;11.20;99.90;;;;;;5013347;28;20087;-69
2021/10/26 07:55:11;;;;;;;19.38;10.30;;;11.10;99.90;;;;;;5015820;28;20030;-69
2021/10/26 07:57:37;;;;;;;16.35;9.57;;;11.10;99.90;;;;;;5014930;28;20542;-69
2021/10/26 08:00:03;;;;;;;20.98;10.88;;;11.00;99.90;;;;;;5016353;28;20033;-69
2021/10/26 08:02:31;;;;;;;19.88;11.10;;;11.10;99.90;;;;;;5015099;28;20044;-69
2021/10/26 08:05:34;;;;;;;20.13;10.95;;;11.20;99.90;;;;;;5005769;28;20038;-68
2021/10/26 08:08:01;;;;;;;18.52;10.43;;;11.30;99.90;;;;;;5005143;28;20073;-68
2021/10/26 08:10:27;;;;;;;20.60;11.88;;;11.40;99.90;;;;;;5016940;28;20029;-68
2021/10/26 08:12:52;;;;;;;19.30;11.75;;;11.40;99.90;;;;;;4993714;28;20103;-68
2021/10/26 08:15:18;;;;;;;17.42;11.38;;;11.50;99.90;;;;;;5011212;28;20520;-68
2021/10/26 08:17:44;;;;;;;35.05;17.13;;;11.60;99.90;;;;;;5011207;28;20033;-68
2021/10/26 08:20:10;;;;;;;21.73;11.85;;;11.60;99.90;;;;;;5008304;28;20615;-69
2021/10/26 08:22:39;;;;;;;23.50;12.95;;;11.60;99.90;;;;;;5015732;28;20866;-69
2021/10/26 08:25:12;;;;;;;24.10;12.63;;;11.60;99.90;;;;;;5008083;28;20431;-68
2021/10/26 08:27:38;;;;;;;21.90;11.27;;;11.70;99.90;;;;;;5000141;28;20040;-69
2021/10/26 08:30:16;;;;;;;19.88;12.27;;;11.70;99.90;;;;;;5000748;28;20599;-69
2021/10/26 08:32:55;;;;;;;21.65;10.93;;;11.80;99.90;;;;;;5005785;28;20079;-69
2021/10/26 08:35:26;;;;;;;23.17;13.10;;;11.80;99.90;;;;;;5013197;28;20026;-69
2021/10/26 08:37:52;;;;;;;25.27;12.10;;;11.70;99.90;;;;;;4995763;28;20499;-69
2021/10/26 08:40:18;;;;;;;19.73;11.80;;;11.70;99.90;;;;;;5011151;28;20060;-69
2021/10/26 08:42:44;;;;;;;18.70;10.85;;;11.80;99.90;;;;;;5009205;28;20038;-68
2021/10/26 08:45:10;;;;;;;23.80;12.65;;;11.90;99.90;;;;;;5008990;28;20030;-68
2021/10/26 08:47:38;;;;;;;20.55;12.13;;;11.90;99.90;;;;;;5005987;28;20036;-69
2021/10/26 08:50:34;;;;;;;27.20;13.18;;;12.10;99.90;;;;;;5003623;28;20065;-68
2021/10/26 08:53:00;;;;;;;23.08;10.52;;;12.20;99.90;;;;;;4997580;28;20042;-70
2021/10/26 08:55:55;;;;;;;25.88;13.20;;;12.30;99.90;;;;;;5008701;28;20140;-68
2021/10/26 08:58:42;;;;;;;21.88;12.65;;;12.40;99.90;;;;;;5011789;28;20073;-69
2021/10/26 09:01:08;;;;;;;20.40;11.30;;;12.40;99.90;;;;;;5010112;28;20033;-68
2021/10/26 09:03:39;;;;;;;20.60;11.35;;;12.60;99.90;;;;;;5014403;28;20057;-68
2021/10/26 09:06:06;;;;;;;18.23;11.18;;;12.70;99.90;;;;;;5008377;28;20833;-68
2021/10/26 09:08:33;;;;;;;22.80;11.55;;;12.60;99.90;;;;;;5005435;28;20614;-68
2021/10/26 09:11:23;;;;;;;22.48;11.02;;;12.60;99.90;;;;;;5007312;28;20109;-68
2021/10/26 09:17:10;;;;;;;21.67;11.48;;;12.80;99.90;;;;;;5017292;28;20820;-69
2021/10/26 09:19:54;;;;;;;21.77;10.68;;;12.90;99.90;;;;;;5009932;28;20156;-69
2021/10/26 09:22:38;;;;;;;17.33;10.82;;;12.80;99.90;;;;;;5013717;28;20493;-71
2021/10/26 09:25:03;;;;;;;21.48;11.77;;;12.80;99.90;;;;;;5011090;28;20033;-70
2021/10/26 09:27:29;;;;;;;26.73;11.43;;;12.90;99.90;;;;;;4998377;28;20034;-70
2021/10/26 09:29:55;;;;;;;22.20;9.95;;;12.90;99.90;;;;;;4999370;28;20029;-70
2021/10/26 09:32:20;;;;;;;18.77;10.60;;;13.00;99.90;;;;;;5002707;28;20856;-70
2021/10/26 09:34:46;;;;;;;19.13;10.20;;;13.20;99.90;;;;;;5008162;28;20033;-69
2021/10/26 09:37:11;;;;;;;16.10;9.55;;;13.20;99.90;;;;;;5005569;28;20076;-69
2021/10/26 09:39:37;;;;;;;14.85;9.10;;;13.20;99.90;;;;;;5003612;28;20026;-69
2021/10/26 09:42:03;;;;;;;20.55;10.15;;;13.40;99.90;;;;;;5010138;28;20040;-69
2021/10/26 09:44:29;;;;;;;22.15;9.95;;;13.50;99.90;;;;;;5008794;28;20633;-69
2021/10/26 09:46:54;;;;;;;19.23;9.40;;;13.50;99.90;;;;;;5009809;28;20120;-68
2021/10/26 09:49:19;;;;;;;20.88;8.60;;;13.50;99.90;;;;;;5009880;28;20033;-69
2021/10/26 09:51:45;;;;;;;19.70;9.65;;;13.40;99.90;;;;;;5012020;28;20490;-69
2021/10/26 09:54:11;;;;;;;19.88;9.80;;;13.40;99.90;;;;;;5006942;28;20061;-70
2021/10/26 09:56:36;;;;;;;23.63;9.52;;;13.20;99.90;;;;;;5011829;28;20045;-69
2021/10/26 09:59:02;;;;;;;21.65;10.80;;;13.30;99.90;;;;;;5001452;28;20116;-69
2021/10/26 10:01:27;;;;;;;20.58;10.55;;;13.40;99.90;;;;;;5004022;28;20042;-69
2021/10/26 10:03:53;;;;;;;23.30;10.60;;;13.40;99.90;;;;;;5012256;28;20854;-68
2021/10/26 10:06:18;;;;;;;29.58;12.13;;;13.40;99.90;;;;;;5006801;28;20048;-67
2021/10/26 10:08:44;;;;;;;20.85;10.68;;;13.40;99.90;;;;;;5003158;28;20576;-69
2021/10/26 10:11:11;;;;;;;22.83;11.07;;;13.40;99.90;;;;;;5010117;28;20038;-68
2021/10/26 10:13:37;;;;;;;23.60;10.82;;;13.60;99.90;;;;;;5011043;28;20045;-67
2021/10/26 10:16:04;;;;;;;21.60;11.15;;;13.30;99.90;;;;;;5005447;28;20298;-67
2021/10/26 10:18:29;;;;;;;22.65;11.38;;;13.30;99.90;;;;;;5008767;28;20144;-68
2021/10/26 10:20:57;;;;;;;16.45;9.85;;;13.30;99.90;;;;;;5006455;28;20037;-68
2021/10/26 10:23:23;;;;;;;44.97;16.95;;;13.40;99.90;;;;;;5005756;28;20721;-68
2021/10/26 10:25:49;;;;;;;24.80;11.30;;;13.60;99.90;;;;;;5005658;28;20091;-70
2021/10/26 10:28:14;;;;;;;48.47;16.90;;;13.80;99.90;;;;;;5013647;28;20845;-70
2021/10/26 10:30:40;;;;;;;40.20;14.65;;;13.90;99.90;;;;;;5007620;28;20037;-72
2021/10/26 10:33:05;;;;;;;19.02;9.73;;;14.00;99.90;;;;;;5005051;28;20030;-69
2021/10/26 10:35:31;;;;;;;19.58;9.98;;;14.20;99.90;;;;;;5021046;28;20038;-69
2021/10/26 10:37:58;;;;;;;21.65;10.75;;;14.30;99.90;;;;;;5008931;28;20132;-69
2021/10/26 10:40:23;;;;;;;32.47;14.05;;;14.50;99.90;;;;;;5009302;28;20025;-69
2021/10/26 10:42:50;;;;;;;35.08;12.48;;;14.50;99.90;;;;;;5010292;28;20616;-69
2021/10/26 10:45:16;;;;;;;18.73;9.63;;;14.60;99.90;;;;;;5011752;28;20033;-69
2021/10/26 10:47:42;;;;;;;25.23;10.93;;;14.80;99.90;;;;;;5011769;28;20034;-69
2021/10/26 10:50:07;;;;;;;22.35;10.50;;;15.10;99.90;;;;;;5007857;28;20032;-68
2021/10/26 10:52:33;;;;;;;21.35;9.38;;;15.20;99.90;;;;;;5007196;28;20034;-68
2021/10/26 10:55:01;;;;;;;14.27;9.15;;;15.20;99.90;;;;;;5002375;28;20038;-69
2021/10/26 10:57:26;;;;;;;19.77;9.80;;;15.20;99.90;;;;;;5001557;28;20045;-68
2021/10/26 10:59:52;;;;;;;19.73;9.60;;;15.30;99.90;;;;;;5014572;28;20030;-69
2021/10/26 11:02:18;;;;;;;23.58;11.05;;;15.40;99.90;;;;;;5011424;28;20044;-68
2021/10/26 11:04:43;;;;;;;14.77;7.78;;;15.30;99.90;;;;;;5013487;28;20045;-68
2021/10/26 11:07:09;;;;;;;19.00;7.68;;;15.40;99.90;;;;;;5010626;28;20048;-68
2021/10/26 11:09:36;;;;;;;29.48;13.15;;;15.40;99.90;;;;;;4994250;28;20045;-70
2021/10/26 11:12:03;;;;;;;28.33;14.30;;;15.40;99.90;;;;;;5009146;28;20303;-70
2021/10/26 11:14:29;;;;;;;48.88;23.25;;;15.30;99.90;;;;;;5008761;28;20062;-67
2021/10/26 11:16:54;;;;;;;33.83;16.75;;;15.50;99.90;;;;;;5009622;28;20125;-64
2021/10/26 11:19:20;;;;;;;18.35;10.50;;;15.70;99.90;;;;;;5003303;28;20414;-64
2021/10/26 11:21:45;;;;;;;14.75;8.32;;;15.80;99.90;;;;;;5011185;28;20390;-65
2021/10/26 11:24:11;;;;;;;15.23;8.93;;;15.80;99.90;;;;;;5005859;28;20486;-66
2021/10/26 11:26:36;;;;;;;15.90;8.13;;;15.80;99.90;;;;;;5005500;28;20041;-65
2021/10/26 11:29:02;;;;;;;16.73;8.15;;;15.90;99.90;;;;;;5007132;28;20035;-64
2021/10/26 11:31:28;;;;;;;13.68;7.80;;;16.20;99.90;;;;;;5007015;28;20571;-63
2021/10/26 11:33:59;;;;;;;13.23;8.10;;;16.40;99.90;;;;;;5006522;28;20030;-64
2021/10/26 11:36:31;;;;;;;14.00;7.85;;;16.70;99.90;;;;;;5006108;28;20030;-64
2021/10/26 11:38:56;;;;;;;16.58;8.63;;;16.80;99.90;;;;;;5009699;28;20706;-63
2021/10/26 11:41:22;;;;;;;16.85;9.18;;;16.70;99.90;;;;;;5010740;28;20029;-63
2021/10/26 11:43:48;;;;;;;16.48;9.40;;;16.60;99.90;;;;;;5007759;28;20051;-63
2021/10/26 11:46:13;;;;;;;17.63;9.32;;;16.20;99.90;;;;;;5008098;28;20056;-63
2021/10/26 11:48:39;;;;;;;17.88;10.10;;;15.90;99.90;;;;;;5013885;28;20100;-63
2021/10/26 11:51:05;;;;;;;22.27;13.07;;;15.80;99.90;;;;;;5005660;28;20501;-62
2021/10/26 11:53:30;;;;;;;19.35;10.68;;;15.20;99.90;;;;;;5006395;28;20033;-63
2021/10/26 11:55:55;;;;;;;25.25;10.60;;;15.10;99.90;;;;;;5010439;28;20034;-62
2021/10/26 11:58:21;;;;;;;25.42;12.10;;;15.00;99.90;;;;;;5014972;28;20448;-63
2021/10/26 12:00:46;;;;;;;23.77;10.23;;;15.00;99.90;;;;;;5017504;28;20034;-63
2021/10/26 12:03:12;;;;;;;18.33;9.82;;;15.20;99.90;;;;;;5015626;28;20029;-63
2021/10/26 12:05:37;;;;;;;20.00;8.60;;;15.40;99.90;;;;;;5014195;28;20683;-63
2021/10/26 12:08:03;;;;;;;16.55;10.00;;;15.60;99.90;;;;;;5011782;28;20105;-63
2021/10/26 12:10:28;;;;;;;26.95;15.63;;;15.90;99.90;;;;;;5010745;28;20108;-63
2021/10/26 12:12:56;;;;;;;17.52;10.88;;;16.10;99.90;;;;;;5006765;28;20038;-63
2021/10/26 12:15:21;;;;;;;21.38;13.32;;;16.20;99.90;;;;;;5009599;28;20447;-63
2021/10/26 12:17:47;;;;;;;18.13;11.27;;;16.30;99.90;;;;;;5006964;28;20029;-63
2021/10/26 12:20:20;;;;;;;21.10;13.13;;;16.00;99.90;;;;;;5006038;28;20084;-63
2021/10/26 12:22:56;;;;;;;16.02;9.80;;;15.90;99.90;;;;;;5000571;28;20897;-63
2021/10/26 12:25:24;;;;;;;19.95;10.63;;;15.90;99.90;;;;;;4999653;28;20030;-63
2021/10/26 12:27:50;;;;;;;20.50;11.85;;;15.90;99.90;;;;;;5005218;28;20115;-64
2021/10/26 12:30:15;;;;;;;14.07;8.88;;;15.80;99.90;;;;;;5005269;28;20063;-63
2021/10/26 12:32:41;;;;;;;15.77;7.97;;;15.70;99.90;;;;;;5009044;28;20034;-63
2021/10/26 12:35:06;;;;;;;13.45;8.05;;;15.70;99.90;;;;;;5009521;28;20057;-64
2021/10/26 12:37:32;;;;;;;16.70;8.27;;;15.50;99.90;;;;;;5008660;28;20104;-63
2021/10/26 12:39:58;;;;;;;23.52;12.70;;;15.50;99.90;;;;;;5008467;28;20711;-63
2021/10/26 12:42:23;;;;;;;14.65;7.95;;;15.80;99.90;;;;;;5007253;28;20485;-64
2021/10/26 12:44:50;;;;;;;15.13;9.77;;;16.30;99.90;;;;;;5003579;28;20030;-63
2021/10/26 12:47:16;;;;;;;18.52;13.48;;;16.50;99.90;;;;;;5004256;28;20091;-63
2021/10/26 12:49:41;;;;;;;11.25;7.57;;;16.60;99.90;;;;;;5002824;28;20034;-64
2021/10/26 12:52:07;;;;;;;13.07;7.30;;;16.60;99.90;;;;;;5001866;28;20498;-63
2021/10/26 12:54:32;;;;;;;12.82;6.20;;;16.50;99.90;;;;;;5019011;28;20025;-63
2021/10/26 12:57:00;;;;;;;14.65;7.03;;;16.60;99.90;;;;;;5016552;28;20849;-63
2021/10/26 12:59:26;;;;;;;12.98;7.30;;;16.50;99.90;;;;;;5005819;28;20038;-63
2021/10/26 13:01:51;;;;;;;12.00;7.20;;;16.20;99.90;;;;;;5006816;28;20456;-63
2021/10/26 13:04:22;;;;;;;12.38;6.90;;;15.80;99.90;;;;;;5006326;28;20310;-63
2021/10/26 13:06:48;;;;;;;15.00;7.32;;;15.30;99.90;;;;;;5009237;28;20033;-63
2021/10/26 13:09:13;;;;;;;17.75;9.10;;;15.10;99.90;;;;;;5007629;28;20934;-63
2021/10/26 13:11:39;;;;;;;16.17;9.18;;;14.60;99.90;;;;;;5007266;28;20045;-63
2021/10/26 13:14:04;;;;;;;19.42;9.18;;;14.40;99.90;;;;;;5007655;28;20026;-63
2021/10/26 13:16:30;;;;;;;15.20;8.68;;;14.40;99.90;;;;;;5005689;28;20042;-63
2021/10/26 13:18:55;;;;;;;19.02;11.10;;;14.40;99.90;;;;;;5009952;28;20030;-64
2021/10/26 13:21:21;;;;;;;17.98;11.35;;;14.50;99.90;;;;;;5006692;28;20457;-63
2021/10/26 13:23:46;;;;;;;23.77;10.30;;;14.70;99.90;;;;;;5002316;28;20071;-63